sensor_id;sensor_type;location;lat;lon;timestamp;temperature;humidity
67899;DHT22;54699;51.796;10.956;2023-05-07T00:02:24;21.80;55.90
67899;DHT22;54699;51.796;10.956;2023-05-07T00:04:53;21.80;55.80
67899;DHT22;54699;51.796;10.956;2023-05-07T00:07:20;21.80;55.90
67899;DHT22;54699;51.796;10.956;2023-05-07T00:09:47;21.80;55.80
67899;DHT22;54699;51.796;10.956;2023-05-07T00:12:14;21.80;55.90
67899;DHT22;54699;51.796;10.956;2023-05-07T00:14:40;21.80;55.80
67899;DHT22;54699;51.796;10.956;2023-05-07T00:17:07;21.80;55.70
67899;DHT22;54699;51.796;10.956;2023-05-07T00:19:34;21.80;55.80
67899;DHT22;54699;51.796;10.956;2023-05-07T00:22:02;21.70;55.70
67899;DHT22;54699;51.796;10.956;2023-05-07T00:24:29;21.70;55.70
67899;DHT22;54699;51.796;10.956;2023-05-07T00:26:56;21.80;55.70
67899;DHT22;54699;51.796;10.956;2023-05-07T00:29:23;21.70;55.70
67899;DHT22;54699;51.796;10.956;2023-05-07T00:31:50;21.70;55.70
67899;DHT22;54699;51.796;10.956;2023-05-07T00:34:19;21.70;55.70
67899;DHT22;54699;51.796;10.956;2023-05-07T00:36:46;21.70;55.70
67899;DHT22;54699;51.796;10.956;2023-05-07T00:39:14;21.70;55.60
67899;DHT22;54699;51.796;10.956;2023-05-07T00:41:41;21.70;55.70
67899;DHT22;54699;51.796;10.956;2023-05-07T00:44:07;21.70;55.70
67899;DHT22;54699;51.796;10.956;2023-05-07T00:46:34;21.70;55.70
67899;DHT22;54699;51.796;10.956;2023-05-07T00:49:01;21.70;55.50
67899;DHT22;54699;51.796;10.956;2023-05-07T00:51:28;21.70;55.60
67899;DHT22;54699;51.796;10.956;2023-05-07T00:53:56;21.70;55.60
67899;DHT22;54699;51.796;10.956;2023-05-07T00:56:24;21.70;55.60
67899;DHT22;54699;51.796;10.956;2023-05-07T00:58:51;21.70;55.60
67899;DHT22;54699;51.796;10.956;2023-05-07T01:01:18;21.70;55.50
67899;DHT22;54699;51.796;10.956;2023-05-07T01:03:45;21.70;55.60
67899;DHT22;54699;51.796;10.956;2023-05-07T01:06:11;21.60;55.50
67899;DHT22;54699;51.796;10.956;2023-05-07T01:08:42;21.60;55.50
67899;DHT22;54699;51.796;10.956;2023-05-07T01:11:09;21.60;55.50
67899;DHT22;54699;51.796;10.956;2023-05-07T01:13:39;21.60;55.50
67899;DHT22;54699;51.796;10.956;2023-05-07T01:16:06;21.60;55.50
67899;DHT22;54699;51.796;10.956;2023-05-07T01:18:35;21.60;55.50
67899;DHT22;54699;51.796;10.956;2023-05-07T01:21:03;21.60;55.50
67899;DHT22;54699;51.796;10.956;2023-05-07T01:23:32;21.70;55.50
67899;DHT22;54699;51.796;10.956;2023-05-07T01:26:00;21.60;55.40
67899;DHT22;54699;51.796;10.956;2023-05-07T01:28:27;21.60;55.40
67899;DHT22;54699;51.796;10.956;2023-05-07T01:30:54;21.60;55.30
67899;DHT22;54699;51.796;10.956;2023-05-07T01:33:26;21.60;55.40
67899;DHT22;54699;51.796;10.956;2023-05-07T01:35:56;21.60;55.20
67899;DHT22;54699;51.796;10.956;2023-05-07T01:38:25;21.60;55.30
67899;DHT22;54699;51.796;10.956;2023-05-07T01:40:54;21.60;55.30
67899;DHT22;54699;51.796;10.956;2023-05-07T01:43:22;21.60;55.30
67899;DHT22;54699;51.796;10.956;2023-05-07T01:45:49;21.60;55.30
67899;DHT22;54699;51.796;10.956;2023-05-07T01:48:16;21.60;55.30
67899;DHT22;54699;51.796;10.956;2023-05-07T01:50:44;21.60;55.30
67899;DHT22;54699;51.796;10.956;2023-05-07T01:53:11;21.60;55.30
67899;DHT22;54699;51.796;10.956;2023-05-07T01:55:38;21.60;55.30
67899;DHT22;54699;51.796;10.956;2023-05-07T01:58:06;21.60;55.10
67899;DHT22;54699;51.796;10.956;2023-05-07T02:00:34;21.60;55.20
67899;DHT22;54699;51.796;10.956;2023-05-07T02:03:01;21.60;55.10
67899;DHT22;54699;51.796;10.956;2023-05-07T02:05:27;21.60;55.10
67899;DHT22;54699;51.796;10.956;2023-05-07T02:07:54;21.60;55.00
67899;DHT22;54699;51.796;10.956;2023-05-07T02:10:21;21.60;55.10
67899;DHT22;54699;51.796;10.956;2023-05-07T02:12:48;21.60;55.00
67899;DHT22;54699;51.796;10.956;2023-05-07T02:15:17;21.50;55.00
67899;DHT22;54699;51.796;10.956;2023-05-07T02:17:57;21.60;55.20
67899;DHT22;54699;51.796;10.956;2023-05-07T02:20:25;21.60;55.10
67899;DHT22;54699;51.796;10.956;2023-05-07T02:22:53;21.60;55.00
67899;DHT22;54699;51.796;10.956;2023-05-07T02:25:21;21.60;55.00
67899;DHT22;54699;51.796;10.956;2023-05-07T02:27:48;21.60;55.00
67899;DHT22;54699;51.796;10.956;2023-05-07T02:30:15;21.60;54.90
67899;DHT22;54699;51.796;10.956;2023-05-07T02:32:46;21.60;54.80
67899;DHT22;54699;51.796;10.956;2023-05-07T02:35:13;21.60;54.80
67899;DHT22;54699;51.796;10.956;2023-05-07T02:37:40;21.60;54.80
67899;DHT22;54699;51.796;10.956;2023-05-07T02:40:07;21.60;54.80
67899;DHT22;54699;51.796;10.956;2023-05-07T02:42:34;21.60;54.90
67899;DHT22;54699;51.796;10.956;2023-05-07T02:45:01;21.50;54.70
67899;DHT22;54699;51.796;10.956;2023-05-07T02:47:29;21.50;54.80
67899;DHT22;54699;51.796;10.956;2023-05-07T02:49:56;21.60;54.90
67899;DHT22;54699;51.796;10.956;2023-05-07T02:52:23;21.50;54.70
67899;DHT22;54699;51.796;10.956;2023-05-07T02:54:50;21.50;54.80
67899;DHT22;54699;51.796;10.956;2023-05-07T02:57:16;21.50;54.90
67899;DHT22;54699;51.796;10.956;2023-05-07T02:59:43;21.60;54.80
67899;DHT22;54699;51.796;10.956;2023-05-07T03:02:10;21.60;54.70
67899;DHT22;54699;51.796;10.956;2023-05-07T03:04:39;21.60;54.70
67899;DHT22;54699;51.796;10.956;2023-05-07T03:07:06;21.50;54.70
67899;DHT22;54699;51.796;10.956;2023-05-07T03:09:33;21.50;54.70
67899;DHT22;54699;51.796;10.956;2023-05-07T03:12:00;21.50;54.60
67899;DHT22;54699;51.796;10.956;2023-05-07T03:14:27;21.50;54.60
67899;DHT22;54699;51.796;10.956;2023-05-07T03:16:53;21.50;54.60
67899;DHT22;54699;51.796;10.956;2023-05-07T03:19:21;21.50;54.60
67899;DHT22;54699;51.796;10.956;2023-05-07T03:21:49;21.50;54.60
67899;DHT22;54699;51.796;10.956;2023-05-07T03:24:15;21.50;54.50
67899;DHT22;54699;51.796;10.956;2023-05-07T03:26:42;21.50;54.60
67899;DHT22;54699;51.796;10.956;2023-05-07T03:29:09;21.50;54.60
67899;DHT22;54699;51.796;10.956;2023-05-07T03:31:35;21.50;54.60
67899;DHT22;54699;51.796;10.956;2023-05-07T03:34:02;21.50;54.50
67899;DHT22;54699;51.796;10.956;2023-05-07T03:36:29;21.50;54.40
67899;DHT22;54699;51.796;10.956;2023-05-07T03:38:57;21.50;54.40
67899;DHT22;54699;51.796;10.956;2023-05-07T03:41:24;21.50;54.40
67899;DHT22;54699;51.796;10.956;2023-05-07T03:43:51;21.50;54.40
67899;DHT22;54699;51.796;10.956;2023-05-07T03:46:17;21.50;54.40
67899;DHT22;54699;51.796;10.956;2023-05-07T03:48:44;21.50;54.40
67899;DHT22;54699;51.796;10.956;2023-05-07T03:51:11;21.50;54.50
67899;DHT22;54699;51.796;10.956;2023-05-07T03:53:38;21.50;54.50
67899;DHT22;54699;51.796;10.956;2023-05-07T03:56:06;21.40;54.40
67899;DHT22;54699;51.796;10.956;2023-05-07T03:58:33;21.50;54.40
67899;DHT22;54699;51.796;10.956;2023-05-07T04:01:00;21.50;54.40
67899;DHT22;54699;51.796;10.956;2023-05-07T04:03:27;21.50;54.40
67899;DHT22;54699;51.796;10.956;2023-05-07T04:05:54;21.50;54.50
67899;DHT22;54699;51.796;10.956;2023-05-07T04:08:21;21.40;54.50
67899;DHT22;54699;51.796;10.956;2023-05-07T04:10:47;21.40;54.40
67899;DHT22;54699;51.796;10.956;2023-05-07T04:13:15;21.50;54.40
67899;DHT22;54699;51.796;10.956;2023-05-07T04:15:42;21.50;54.40
67899;DHT22;54699;51.796;10.956;2023-05-07T04:18:10;21.40;54.40
67899;DHT22;54699;51.796;10.956;2023-05-07T04:20:39;21.40;54.30
67899;DHT22;54699;51.796;10.956;2023-05-07T04:23:06;21.40;54.40
67899;DHT22;54699;51.796;10.956;2023-05-07T04:25:33;21.40;54.50
67899;DHT22;54699;51.796;10.956;2023-05-07T04:28:00;21.40;54.40
67899;DHT22;54699;51.796;10.956;2023-05-07T04:30:28;21.40;54.40
67899;DHT22;54699;51.796;10.956;2023-05-07T04:32:55;21.40;54.40
67899;DHT22;54699;51.796;10.956;2023-05-07T04:35:22;21.40;54.30
67899;DHT22;54699;51.796;10.956;2023-05-07T04:37:49;21.40;54.40
67899;DHT22;54699;51.796;10.956;2023-05-07T04:40:16;21.40;54.30
67899;DHT22;54699;51.796;10.956;2023-05-07T04:42:43;21.40;54.20
67899;DHT22;54699;51.796;10.956;2023-05-07T04:45:10;21.40;54.40
67899;DHT22;54699;51.796;10.956;2023-05-07T04:47:39;21.40;54.30
67899;DHT22;54699;51.796;10.956;2023-05-07T04:50:06;21.40;54.30
67899;DHT22;54699;51.796;10.956;2023-05-07T04:52:34;21.40;54.40
67899;DHT22;54699;51.796;10.956;2023-05-07T04:55:00;21.30;54.30
67899;DHT22;54699;51.796;10.956;2023-05-07T04:57:27;21.40;54.30
67899;DHT22;54699;51.796;10.956;2023-05-07T04:59:54;21.40;54.30
67899;DHT22;54699;51.796;10.956;2023-05-07T05:02:21;21.40;54.20
67899;DHT22;54699;51.796;10.956;2023-05-07T05:04:49;21.40;54.20
67899;DHT22;54699;51.796;10.956;2023-05-07T05:07:16;21.40;54.30
67899;DHT22;54699;51.796;10.956;2023-05-07T05:09:42;21.30;54.30
67899;DHT22;54699;51.796;10.956;2023-05-07T05:12:10;21.40;54.30
67899;DHT22;54699;51.796;10.956;2023-05-07T05:14:36;21.30;54.30
67899;DHT22;54699;51.796;10.956;2023-05-07T05:17:03;21.30;54.30
67899;DHT22;54699;51.796;10.956;2023-05-07T05:19:30;21.30;54.30
67899;DHT22;54699;51.796;10.956;2023-05-07T05:21:58;21.30;54.40
67899;DHT22;54699;51.796;10.956;2023-05-07T05:24:26;21.30;54.30
67899;DHT22;54699;51.796;10.956;2023-05-07T05:26:52;21.30;54.30
67899;DHT22;54699;51.796;10.956;2023-05-07T05:29:20;21.30;54.50
67899;DHT22;54699;51.796;10.956;2023-05-07T05:31:46;21.30;54.40
67899;DHT22;54699;51.796;10.956;2023-05-07T05:34:13;21.30;54.50
67899;DHT22;54699;51.796;10.956;2023-05-07T05:36:40;21.30;54.50
67899;DHT22;54699;51.796;10.956;2023-05-07T05:39:08;21.30;54.50
67899;DHT22;54699;51.796;10.956;2023-05-07T05:41:35;21.30;54.40
67899;DHT22;54699;51.796;10.956;2023-05-07T05:44:02;21.30;54.60
67899;DHT22;54699;51.796;10.956;2023-05-07T05:46:29;21.30;54.70
67899;DHT22;54699;51.796;10.956;2023-05-07T05:48:56;21.30;54.60
67899;DHT22;54699;51.796;10.956;2023-05-07T05:51:24;21.30;54.60
67899;DHT22;54699;51.796;10.956;2023-05-07T05:53:53;21.30;54.50
67899;DHT22;54699;51.796;10.956;2023-05-07T05:56:21;21.30;54.70
67899;DHT22;54699;51.796;10.956;2023-05-07T05:58:48;21.20;54.70
67899;DHT22;54699;51.796;10.956;2023-05-07T06:01:15;21.20;54.60
67899;DHT22;54699;51.796;10.956;2023-05-07T06:03:43;21.30;54.60
67899;DHT22;54699;51.796;10.956;2023-05-07T06:06:10;21.20;54.80
67899;DHT22;54699;51.796;10.956;2023-05-07T06:08:37;21.20;54.80
67899;DHT22;54699;51.796;10.956;2023-05-07T06:11:04;21.20;54.90
67899;DHT22;54699;51.796;10.956;2023-05-07T06:13:32;21.20;54.90
67899;DHT22;54699;51.796;10.956;2023-05-07T06:15:58;21.20;54.80
67899;DHT22;54699;51.796;10.956;2023-05-07T06:18:25;21.20;54.80
67899;DHT22;54699;51.796;10.956;2023-05-07T06:20:52;21.20;54.80
67899;DHT22;54699;51.796;10.956;2023-05-07T06:23:19;21.20;54.90
67899;DHT22;54699;51.796;10.956;2023-05-07T06:25:48;21.20;54.90
67899;DHT22;54699;51.796;10.956;2023-05-07T06:28:15;21.20;54.90
67899;DHT22;54699;51.796;10.956;2023-05-07T06:30:43;21.20;54.90
67899;DHT22;54699;51.796;10.956;2023-05-07T06:33:10;21.20;54.90
67899;DHT22;54699;51.796;10.956;2023-05-07T06:35:37;21.20;54.80
67899;DHT22;54699;51.796;10.956;2023-05-07T06:38:03;21.20;54.80
67899;DHT22;54699;51.796;10.956;2023-05-07T06:40:30;21.20;54.90
67899;DHT22;54699;51.796;10.956;2023-05-07T06:42:57;21.20;54.90
67899;DHT22;54699;51.796;10.956;2023-05-07T06:45:23;21.20;55.00
67899;DHT22;54699;51.796;10.956;2023-05-07T06:47:52;21.20;54.90
67899;DHT22;54699;51.796;10.956;2023-05-07T06:50:19;21.20;54.90
67899;DHT22;54699;51.796;10.956;2023-05-07T06:52:45;21.20;54.90
67899;DHT22;54699;51.796;10.956;2023-05-07T06:55:12;21.20;55.00
67899;DHT22;54699;51.796;10.956;2023-05-07T06:57:39;21.20;55.10
67899;DHT22;54699;51.796;10.956;2023-05-07T07:00:06;21.20;55.00
67899;DHT22;54699;51.796;10.956;2023-05-07T07:02:35;21.20;55.10
67899;DHT22;54699;51.796;10.956;2023-05-07T07:05:04;21.20;55.10
67899;DHT22;54699;51.796;10.956;2023-05-07T07:07:31;21.20;55.20
67899;DHT22;54699;51.796;10.956;2023-05-07T07:09:58;21.20;55.10
67899;DHT22;54699;51.796;10.956;2023-05-07T07:12:25;21.20;56.20
67899;DHT22;54699;51.796;10.956;2023-05-07T07:14:52;21.20;55.10
67899;DHT22;54699;51.796;10.956;2023-05-07T07:17:19;21.20;55.30
67899;DHT22;54699;51.796;10.956;2023-05-07T07:19:45;21.20;55.20
67899;DHT22;54699;51.796;10.956;2023-05-07T07:22:13;21.20;55.10
67899;DHT22;54699;51.796;10.956;2023-05-07T07:24:40;21.20;55.20
67899;DHT22;54699;51.796;10.956;2023-05-07T07:27:07;21.20;55.20
67899;DHT22;54699;51.796;10.956;2023-05-07T07:29:33;21.20;55.20
67899;DHT22;54699;51.796;10.956;2023-05-07T07:32:00;21.20;55.30
67899;DHT22;54699;51.796;10.956;2023-05-07T07:34:27;21.20;55.30
67899;DHT22;54699;51.796;10.956;2023-05-07T07:36:54;21.20;55.30
67899;DHT22;54699;51.796;10.956;2023-05-07T07:39:23;21.20;55.30
67899;DHT22;54699;51.796;10.956;2023-05-07T07:41:49;21.20;55.30
67899;DHT22;54699;51.796;10.956;2023-05-07T07:44:16;21.20;55.30
67899;DHT22;54699;51.796;10.956;2023-05-07T07:46:43;21.20;55.30
67899;DHT22;54699;51.796;10.956;2023-05-07T07:49:10;21.20;55.30
67899;DHT22;54699;51.796;10.956;2023-05-07T07:51:39;21.20;55.40
67899;DHT22;54699;51.796;10.956;2023-05-07T07:54:06;21.20;55.40
67899;DHT22;54699;51.796;10.956;2023-05-07T07:56:34;21.20;55.30
67899;DHT22;54699;51.796;10.956;2023-05-07T07:59:01;21.20;55.40
67899;DHT22;54699;51.796;10.956;2023-05-07T08:01:29;21.20;55.30
67899;DHT22;54699;51.796;10.956;2023-05-07T08:03:56;21.20;55.40
67899;DHT22;54699;51.796;10.956;2023-05-07T08:06:24;21.20;55.40
67899;DHT22;54699;51.796;10.956;2023-05-07T08:08:51;21.20;55.40
67899;DHT22;54699;51.796;10.956;2023-05-07T08:11:17;21.20;55.40
67899;DHT22;54699;51.796;10.956;2023-05-07T08:13:48;21.20;55.40
67899;DHT22;54699;51.796;10.956;2023-05-07T08:16:15;21.20;55.50
67899;DHT22;54699;51.796;10.956;2023-05-07T08:18:42;21.20;55.50
67899;DHT22;54699;51.796;10.956;2023-05-07T08:21:10;21.20;55.40
67899;DHT22;54699;51.796;10.956;2023-05-07T08:23:37;21.20;55.50
67899;DHT22;54699;51.796;10.956;2023-05-07T08:26:03;21.20;55.60
67899;DHT22;54699;51.796;10.956;2023-05-07T08:28:30;21.20;55.50
67899;DHT22;54699;51.796;10.956;2023-05-07T08:30:58;21.20;55.50
67899;DHT22;54699;51.796;10.956;2023-05-07T08:33:26;21.20;55.70
67899;DHT22;54699;51.796;10.956;2023-05-07T08:35:52;21.20;55.60
67899;DHT22;54699;51.796;10.956;2023-05-07T08:38:19;21.20;55.60
67899;DHT22;54699;51.796;10.956;2023-05-07T08:40:46;21.20;55.60
67899;DHT22;54699;51.796;10.956;2023-05-07T08:43:13;21.20;55.70
67899;DHT22;54699;51.796;10.956;2023-05-07T08:45:40;21.20;55.70
67899;DHT22;54699;51.796;10.956;2023-05-07T08:48:12;21.20;55.60
67899;DHT22;54699;51.796;10.956;2023-05-07T08:50:41;21.20;55.70
67899;DHT22;54699;51.796;10.956;2023-05-07T08:53:08;21.20;55.70
67899;DHT22;54699;51.796;10.956;2023-05-07T08:55:35;21.20;55.70
67899;DHT22;54699;51.796;10.956;2023-05-07T08:58:01;21.20;55.80
67899;DHT22;54699;51.796;10.956;2023-05-07T09:00:28;21.20;55.70
67899;DHT22;54699;51.796;10.956;2023-05-07T09:02:55;21.20;55.80
67899;DHT22;54699;51.796;10.956;2023-05-07T09:05:23;21.20;55.60
67899;DHT22;54699;51.796;10.956;2023-05-07T09:07:50;21.20;55.70
67899;DHT22;54699;51.796;10.956;2023-05-07T09:10:17;21.20;55.70
67899;DHT22;54699;51.796;10.956;2023-05-07T09:12:43;21.20;55.70
67899;DHT22;54699;51.796;10.956;2023-05-07T09:15:13;21.20;55.70
67899;DHT22;54699;51.796;10.956;2023-05-07T09:17:39;21.20;55.80
67899;DHT22;54699;51.796;10.956;2023-05-07T09:20:07;21.20;55.70
67899;DHT22;54699;51.796;10.956;2023-05-07T09:22:37;21.20;55.80
67899;DHT22;54699;51.796;10.956;2023-05-07T09:25:05;21.20;55.80
67899;DHT22;54699;51.796;10.956;2023-05-07T09:27:33;21.20;55.80
67899;DHT22;54699;51.796;10.956;2023-05-07T09:30:02;21.20;55.80
67899;DHT22;54699;51.796;10.956;2023-05-07T09:32:29;21.20;55.80
67899;DHT22;54699;51.796;10.956;2023-05-07T09:34:56;21.20;55.90
67899;DHT22;54699;51.796;10.956;2023-05-07T09:37:23;21.20;55.80
67899;DHT22;54699;51.796;10.956;2023-05-07T09:39:54;21.20;55.80
67899;DHT22;54699;51.796;10.956;2023-05-07T09:42:22;21.20;55.90
67899;DHT22;54699;51.796;10.956;2023-05-07T09:44:49;21.20;56.00
67899;DHT22;54699;51.796;10.956;2023-05-07T09:47:18;21.20;56.00
67899;DHT22;54699;51.796;10.956;2023-05-07T09:49:47;21.20;56.00
67899;DHT22;54699;51.796;10.956;2023-05-07T09:52:14;21.20;56.00
67899;DHT22;54699;51.796;10.956;2023-05-07T09:54:42;21.20;55.90
67899;DHT22;54699;51.796;10.956;2023-05-07T09:57:12;21.20;56.00
67899;DHT22;54699;51.796;10.956;2023-05-07T09:59:40;21.20;56.00
67899;DHT22;54699;51.796;10.956;2023-05-07T10:02:09;21.20;56.10
67899;DHT22;54699;51.796;10.956;2023-05-07T10:04:36;21.20;56.00
67899;DHT22;54699;51.796;10.956;2023-05-07T10:07:03;21.20;56.00
67899;DHT22;54699;51.796;10.956;2023-05-07T10:09:31;21.20;56.10
67899;DHT22;54699;51.796;10.956;2023-05-07T10:11:58;21.20;56.20
67899;DHT22;54699;51.796;10.956;2023-05-07T10:14:27;21.20;56.20
67899;DHT22;54699;51.796;10.956;2023-05-07T10:16:54;21.20;56.20
67899;DHT22;54699;51.796;10.956;2023-05-07T10:19:22;21.20;56.20
67899;DHT22;54699;51.796;10.956;2023-05-07T10:21:51;21.20;56.30
67899;DHT22;54699;51.796;10.956;2023-05-07T10:24:24;21.20;56.30
67899;DHT22;54699;51.796;10.956;2023-05-07T10:26:52;21.20;56.30
67899;DHT22;54699;51.796;10.956;2023-05-07T10:29:25;21.20;56.30
67899;DHT22;54699;51.796;10.956;2023-05-07T10:32:04;21.20;56.30
67899;DHT22;54699;51.796;10.956;2023-05-07T10:34:47;21.20;56.40
67899;DHT22;54699;51.796;10.956;2023-05-07T10:37:17;21.20;56.20
67899;DHT22;54699;51.796;10.956;2023-05-07T10:39:44;21.20;56.30
67899;DHT22;54699;51.796;10.956;2023-05-07T10:42:12;21.20;56.30
67899;DHT22;54699;51.796;10.956;2023-05-07T10:44:42;21.20;56.40
67899;DHT22;54699;51.796;10.956;2023-05-07T10:47:09;21.20;56.30
67899;DHT22;54699;51.796;10.956;2023-05-07T10:49:51;21.20;56.30
67899;DHT22;54699;51.796;10.956;2023-05-07T10:55:50;21.20;56.30
67899;DHT22;54699;51.796;10.956;2023-05-07T10:58:23;21.20;56.40
67899;DHT22;54699;51.796;10.956;2023-05-07T11:03:24;21.30;56.20
67899;DHT22;54699;51.796;10.956;2023-05-07T11:06:08;21.20;56.50
67899;DHT22;54699;51.796;10.956;2023-05-07T11:14:12;21.20;56.60
67899;DHT22;54699;51.796;10.956;2023-05-07T11:16:41;21.30;56.70
67899;DHT22;54699;51.796;10.956;2023-05-07T11:19:09;21.20;56.80
67899;DHT22;54699;51.796;10.956;2023-05-07T11:21:36;21.20;56.70
67899;DHT22;54699;51.796;10.956;2023-05-07T11:24:05;21.30;56.60
67899;DHT22;54699;51.796;10.956;2023-05-07T11:26:43;21.20;56.40
67899;DHT22;54699;51.796;10.956;2023-05-07T11:29:14;21.30;56.50
67899;DHT22;54699;51.796;10.956;2023-05-07T11:31:44;21.30;56.90
67899;DHT22;54699;51.796;10.956;2023-05-07T11:34:15;21.30;56.60
67899;DHT22;54699;51.796;10.956;2023-05-07T11:36:46;21.30;56.60
67899;DHT22;54699;51.796;10.956;2023-05-07T11:39:22;21.30;56.60
67899;DHT22;54699;51.796;10.956;2023-05-07T11:41:50;21.30;56.60
67899;DHT22;54699;51.796;10.956;2023-05-07T11:44:16;21.30;56.50
67899;DHT22;54699;51.796;10.956;2023-05-07T11:46:46;21.30;56.50
67899;DHT22;54699;51.796;10.956;2023-05-07T11:49:12;21.20;56.70
67899;DHT22;54699;51.796;10.956;2023-05-07T11:51:39;21.30;56.60
67899;DHT22;54699;51.796;10.956;2023-05-07T11:54:07;21.30;56.90
67899;DHT22;54699;51.796;10.956;2023-05-07T11:56:36;21.30;56.70
67899;DHT22;54699;51.796;10.956;2023-05-07T11:59:04;21.30;56.90
67899;DHT22;54699;51.796;10.956;2023-05-07T12:01:30;21.30;56.90
67899;DHT22;54699;51.796;10.956;2023-05-07T12:03:58;21.30;56.80
67899;DHT22;54699;51.796;10.956;2023-05-07T12:06:29;21.30;56.90
67899;DHT22;54699;51.796;10.956;2023-05-07T12:08:56;21.30;57.00
67899;DHT22;54699;51.796;10.956;2023-05-07T12:11:24;21.30;57.20
67899;DHT22;54699;51.796;10.956;2023-05-07T12:13:51;21.30;57.00
67899;DHT22;54699;51.796;10.956;2023-05-07T12:16:20;21.30;56.90
67899;DHT22;54699;51.796;10.956;2023-05-07T12:18:47;21.30;56.90
67899;DHT22;54699;51.796;10.956;2023-05-07T12:21:16;21.30;57.10
67899;DHT22;54699;51.796;10.956;2023-05-07T12:23:43;21.30;57.20
67899;DHT22;54699;51.796;10.956;2023-05-07T12:26:11;21.30;57.20
67899;DHT22;54699;51.796;10.956;2023-05-07T12:28:38;21.30;57.40
67899;DHT22;54699;51.796;10.956;2023-05-07T12:31:05;21.30;57.40
67899;DHT22;54699;51.796;10.956;2023-05-07T12:33:33;21.30;57.40
67899;DHT22;54699;51.796;10.956;2023-05-07T12:36:02;21.30;57.50
67899;DHT22;54699;51.796;10.956;2023-05-07T12:38:36;21.30;57.40
67899;DHT22;54699;51.796;10.956;2023-05-07T12:41:05;21.30;57.40
67899;DHT22;54699;51.796;10.956;2023-05-07T12:43:33;21.30;57.30
67899;DHT22;54699;51.796;10.956;2023-05-07T12:46:01;21.30;57.40
67899;DHT22;54699;51.796;10.956;2023-05-07T12:48:29;21.30;57.10
67899;DHT22;54699;51.796;10.956;2023-05-07T12:50:56;21.30;57.20
67899;DHT22;54699;51.796;10.956;2023-05-07T12:53:24;21.30;57.00
67899;DHT22;54699;51.796;10.956;2023-05-07T12:55:54;21.30;57.30
67899;DHT22;54699;51.796;10.956;2023-05-07T12:58:24;21.30;57.00
67899;DHT22;54699;51.796;10.956;2023-05-07T13:00:51;21.40;57.00
67899;DHT22;54699;51.796;10.956;2023-05-07T13:03:22;21.30;57.00
67899;DHT22;54699;51.796;10.956;2023-05-07T13:05:50;21.30;57.10
67899;DHT22;54699;51.796;10.956;2023-05-07T13:08:23;21.30;57.00
67899;DHT22;54699;51.796;10.956;2023-05-07T13:10:56;21.30;57.00
67899;DHT22;54699;51.796;10.956;2023-05-07T13:13:24;21.30;57.10
67899;DHT22;54699;51.796;10.956;2023-05-07T13:15:51;21.30;57.00
67899;DHT22;54699;51.796;10.956;2023-05-07T13:18:17;21.30;56.90
67899;DHT22;54699;51.796;10.956;2023-05-07T13:20:44;21.30;56.70
67899;DHT22;54699;51.796;10.956;2023-05-07T13:23:11;21.30;56.60
67899;DHT22;54699;51.796;10.956;2023-05-07T13:25:38;21.30;56.70
67899;DHT22;54699;51.796;10.956;2023-05-07T13:28:06;21.30;56.90
67899;DHT22;54699;51.796;10.956;2023-05-07T13:30:33;21.30;57.00
67899;DHT22;54699;51.796;10.956;2023-05-07T13:33:00;21.30;57.30
67899;DHT22;54699;51.796;10.956;2023-05-07T13:35:27;21.30;57.00
67899;DHT22;54699;51.796;10.956;2023-05-07T13:37:55;21.30;57.10
67899;DHT22;54699;51.796;10.956;2023-05-07T13:40:22;21.30;57.20
67899;DHT22;54699;51.796;10.956;2023-05-07T13:42:49;21.30;57.30
67899;DHT22;54699;51.796;10.956;2023-05-07T13:45:17;21.30;56.00
67899;DHT22;54699;51.796;10.956;2023-05-07T13:47:45;21.30;56.90
67899;DHT22;54699;51.796;10.956;2023-05-07T13:50:14;21.30;57.40
67899;DHT22;54699;51.796;10.956;2023-05-07T13:52:42;21.30;57.40
67899;DHT22;54699;51.796;10.956;2023-05-07T13:55:12;21.30;57.40
67899;DHT22;54699;51.796;10.956;2023-05-07T13:57:39;21.30;57.40
67899;DHT22;54699;51.796;10.956;2023-05-07T14:00:07;21.30;57.30
67899;DHT22;54699;51.796;10.956;2023-05-07T14:02:35;21.30;57.30
67899;DHT22;54699;51.796;10.956;2023-05-07T14:05:02;21.30;57.30
67899;DHT22;54699;51.796;10.956;2023-05-07T14:07:30;21.30;57.20
67899;DHT22;54699;51.796;10.956;2023-05-07T14:09:57;21.30;56.90
67899;DHT22;54699;51.796;10.956;2023-05-07T14:12:24;21.30;56.50
67899;DHT22;54699;51.796;10.956;2023-05-07T14:14:50;21.30;57.00
67899;DHT22;54699;51.796;10.956;2023-05-07T14:17:17;21.30;56.90
67899;DHT22;54699;51.796;10.956;2023-05-07T14:19:46;21.30;56.60
67899;DHT22;54699;51.796;10.956;2023-05-07T14:22:13;21.30;56.90
67899;DHT22;54699;51.796;10.956;2023-05-07T14:24:40;21.30;57.00
67899;DHT22;54699;51.796;10.956;2023-05-07T14:27:07;21.30;57.10
67899;DHT22;54699;51.796;10.956;2023-05-07T14:29:34;21.30;56.20
67899;DHT22;54699;51.796;10.956;2023-05-07T14:32:01;21.30;56.20
67899;DHT22;54699;51.796;10.956;2023-05-07T14:34:28;21.30;56.40
67899;DHT22;54699;51.796;10.956;2023-05-07T14:36:57;21.30;55.90
67899;DHT22;54699;51.796;10.956;2023-05-07T14:39:24;21.30;55.20
67899;DHT22;54699;51.796;10.956;2023-05-07T14:41:51;21.30;55.40
67899;DHT22;54699;51.796;10.956;2023-05-07T14:44:19;21.30;55.00
67899;DHT22;54699;51.796;10.956;2023-05-07T14:46:46;21.40;54.70
67899;DHT22;54699;51.796;10.956;2023-05-07T14:49:13;21.30;54.90
67899;DHT22;54699;51.796;10.956;2023-05-07T14:51:42;21.40;54.60
67899;DHT22;54699;51.796;10.956;2023-05-07T14:54:11;21.40;54.50
67899;DHT22;54699;51.796;10.956;2023-05-07T14:56:38;21.40;54.70
67899;DHT22;54699;51.796;10.956;2023-05-07T14:59:05;21.40;54.10
67899;DHT22;54699;51.796;10.956;2023-05-07T15:01:33;21.40;54.80
67899;DHT22;54699;51.796;10.956;2023-05-07T15:04:02;21.40;54.30
67899;DHT22;54699;51.796;10.956;2023-05-07T15:06:29;21.40;54.80
67899;DHT22;54699;51.796;10.956;2023-05-07T15:08:56;21.40;54.20
67899;DHT22;54699;51.796;10.956;2023-05-07T15:11:25;21.40;53.90
67899;DHT22;54699;51.796;10.956;2023-05-07T15:13:51;21.40;53.80
67899;DHT22;54699;51.796;10.956;2023-05-07T15:16:18;21.40;54.10
67899;DHT22;54699;51.796;10.956;2023-05-07T15:18:45;21.40;54.20
67899;DHT22;54699;51.796;10.956;2023-05-07T15:21:12;21.40;54.20
67899;DHT22;54699;51.796;10.956;2023-05-07T15:23:39;21.40;54.20
67899;DHT22;54699;51.796;10.956;2023-05-07T15:26:06;21.40;54.70
67899;DHT22;54699;51.796;10.956;2023-05-07T15:28:35;21.40;54.20
67899;DHT22;54699;51.796;10.956;2023-05-07T15:31:03;21.40;54.20